Главная страница
METAR-TAF:

METAR-TAF

Аэропорты :

Витебск, Беларусь

широта: 55-10N, долгота: 030-13E, высота над уровнем моря: 176 м

Текущие метеонаблюдения

Эта сводка был подготовлена 5 часа и 9 минут назад, в 16:00 UTC
Ветер 6 Узел от северо-западный
Температура 20°C
Влажность 40%
Давление 1014 hPa
Видимость 10 км и более
Нет облачности ниже 1500 м, и нет кучево-дождевой облачности

METAR: UMII 131600Z 31003MPS CAVOK 20/06 Q1014 NOSIG

Время: 00:09 (21:09 UTC)

Прогноз

Эта сводка был подготовлена 7 часа и 4 минут назад, в 14:05 UTC
Прогноз действительный с 13-го 15 UTC до 13-го 24 UTC
Ветер 6 Узел от северно-северо-западный с порывами до 16 Узел
Видимость 10 км и более
Рассеянная облачность на высоте 2000 фута
временами
С 13-го 15 UTC до 13-го 24 UTC
Ветер 8 Узел от северно-северо-западный с порывами до 17 Узел

TAF: UMII 131405Z 1315/1324 33003G08MPS 9999 BKN020 TEMPO 1315/1324 34004G09MPS

Метеонаблюдения и прогнозы для более 4000 аэропортов (сводки METAR и TAF).

Имеющиеся станции представлены на карте желтыми и красными точками.

Чтобы увидеть название станции, наведите на нее мышь.

Затем щелкните, чтобы увидеть метеонаблюдения и метеопрогнозы.

Управление картой: чтобы увеличить масштаб, щелкните зеленые кнопки с черным крестиком; чтобы уменьшить масштаб, щелкните зеленую кнопку с тире; для просмотра соседних карт щелкайте зеленые стрелки.


METAR-TAF: